sensor_id;sensor_type;location;lat;lon;timestamp;temperature;humidity
1415;DHT22;702;49.466;11.086;2023-02-28T00:00:37;-2.70;73.30
1415;DHT22;702;49.466;11.086;2023-02-28T00:03:05;-2.70;73.20
1415;DHT22;702;49.466;11.086;2023-02-28T00:05:33;-2.60;73.00
1415;DHT22;702;49.466;11.086;2023-02-28T00:08:02;-2.60;73.00
1415;DHT22;702;49.466;11.086;2023-02-28T00:10:30;-2.50;72.90
1415;DHT22;702;49.466;11.086;2023-02-28T00:13:00;-2.50;73.00
1415;DHT22;702;49.466;11.086;2023-02-28T00:15:28;-2.50;72.90
1415;DHT22;702;49.466;11.086;2023-02-28T00:17:56;-2.50;72.80
1415;DHT22;702;49.466;11.086;2023-02-28T00:20:24;-2.50;72.80
1415;DHT22;702;49.466;11.086;2023-02-28T00:22:53;-2.40;72.50
1415;DHT22;702;49.466;11.086;2023-02-28T00:25:23;-2.50;72.50
1415;DHT22;702;49.466;11.086;2023-02-28T00:27:52;-2.50;72.70
1415;DHT22;702;49.466;11.086;2023-02-28T00:30:21;-2.50;72.80
1415;DHT22;702;49.466;11.086;2023-02-28T00:32:49;-2.50;72.70
1415;DHT22;702;49.466;11.086;2023-02-28T00:35:17;-2.40;73.00
1415;DHT22;702;49.466;11.086;2023-02-28T00:37:45;-2.40;72.60
1415;DHT22;702;49.466;11.086;2023-02-28T00:40:12;-2.40;72.70
1415;DHT22;702;49.466;11.086;2023-02-28T00:42:40;-2.50;72.60
1415;DHT22;702;49.466;11.086;2023-02-28T00:45:08;-2.40;73.00
1415;DHT22;702;49.466;11.086;2023-02-28T00:47:36;-2.50;72.80
1415;DHT22;702;49.466;11.086;2023-02-28T00:50:04;-2.50;73.20
1415;DHT22;702;49.466;11.086;2023-02-28T00:52:32;-2.50;72.90
1415;DHT22;702;49.466;11.086;2023-02-28T00:54:59;-2.50;72.90
1415;DHT22;702;49.466;11.086;2023-02-28T00:57:26;-2.50;73.00
1415;DHT22;702;49.466;11.086;2023-02-28T00:59:55;-2.50;73.00
1415;DHT22;702;49.466;11.086;2023-02-28T01:02:23;-2.50;72.90
1415;DHT22;702;49.466;11.086;2023-02-28T01:04:50;-2.40;73.00
1415;DHT22;702;49.466;11.086;2023-02-28T01:07:17;-2.40;72.90
1415;DHT22;702;49.466;11.086;2023-02-28T01:09:45;-2.40;72.90
1415;DHT22;702;49.466;11.086;2023-02-28T01:12:12;-2.40;72.80
1415;DHT22;702;49.466;11.086;2023-02-28T01:14:39;-2.30;72.80
1415;DHT22;702;49.466;11.086;2023-02-28T01:17:08;-2.40;72.80
1415;DHT22;702;49.466;11.086;2023-02-28T01:19:35;-2.40;72.80
1415;DHT22;702;49.466;11.086;2023-02-28T01:22:04;-2.40;72.80
1415;DHT22;702;49.466;11.086;2023-02-28T01:24:32;-2.40;72.80
1415;DHT22;702;49.466;11.086;2023-02-28T01:27:00;-2.30;72.80
1415;DHT22;702;49.466;11.086;2023-02-28T01:29:27;-2.30;72.80
1415;DHT22;702;49.466;11.086;2023-02-28T01:31:54;-2.30;72.70
1415;DHT22;702;49.466;11.086;2023-02-28T01:34:24;-2.30;72.80
1415;DHT22;702;49.466;11.086;2023-02-28T01:36:51;-2.30;72.90
1415;DHT22;702;49.466;11.086;2023-02-28T01:39:18;-2.30;73.00
1415;DHT22;702;49.466;11.086;2023-02-28T01:41:45;-2.30;72.90
1415;DHT22;702;49.466;11.086;2023-02-28T01:47:31;-2.30;73.10
1415;DHT22;702;49.466;11.086;2023-02-28T01:50:04;-2.30;73.10
1415;DHT22;702;49.466;11.086;2023-02-28T01:52:35;-2.40;73.10
1415;DHT22;702;49.466;11.086;2023-02-28T01:55:06;-2.40;73.20
1415;DHT22;702;49.466;11.086;2023-02-28T01:57:36;-2.30;73.10
1415;DHT22;702;49.466;11.086;2023-02-28T02:00:08;-2.40;73.20
1415;DHT22;702;49.466;11.086;2023-02-28T02:02:40;-2.40;73.30
1415;DHT22;702;49.466;11.086;2023-02-28T02:05:14;-2.40;73.70
1415;DHT22;702;49.466;11.086;2023-02-28T02:07:44;-2.40;73.50
1415;DHT22;702;49.466;11.086;2023-02-28T02:10:14;-2.40;73.50
1415;DHT22;702;49.466;11.086;2023-02-28T02:13:19;-2.50;73.60
1415;DHT22;702;49.466;11.086;2023-02-28T02:16:00;-2.40;73.80
1415;DHT22;702;49.466;11.086;2023-02-28T02:18:35;-2.40;73.80
1415;DHT22;702;49.466;11.086;2023-02-28T02:21:50;-2.40;73.80
1415;DHT22;702;49.466;11.086;2023-02-28T02:25:02;-2.40;74.00
1415;DHT22;702;49.466;11.086;2023-02-28T02:27:50;-2.50;73.90
1415;DHT22;702;49.466;11.086;2023-02-28T02:30:58;-2.50;74.10
1415;DHT22;702;49.466;11.086;2023-02-28T02:37:27;-2.50;74.30
1415;DHT22;702;49.466;11.086;2023-02-28T02:40:03;-2.60;74.40
1415;DHT22;702;49.466;11.086;2023-02-28T02:42:39;-2.60;74.40
1415;DHT22;702;49.466;11.086;2023-02-28T02:45:12;-2.60;74.60
1415;DHT22;702;49.466;11.086;2023-02-28T02:47:43;-2.60;74.60
1415;DHT22;702;49.466;11.086;2023-02-28T02:50:17;-2.60;74.80
1415;DHT22;702;49.466;11.086;2023-02-28T02:52:50;-2.60;74.70
1415;DHT22;702;49.466;11.086;2023-02-28T02:55:20;-2.70;74.90
1415;DHT22;702;49.466;11.086;2023-02-28T02:57:51;-2.60;75.00
1415;DHT22;702;49.466;11.086;2023-02-28T03:00:25;-2.60;75.10
1415;DHT22;702;49.466;11.086;2023-02-28T03:02:54;-2.60;75.10
1415;DHT22;702;49.466;11.086;2023-02-28T03:05:27;-2.60;75.10
1415;DHT22;702;49.466;11.086;2023-02-28T03:07:57;-2.60;75.20
1415;DHT22;702;49.466;11.086;2023-02-28T03:10:36;-2.70;75.20
1415;DHT22;702;49.466;11.086;2023-02-28T03:13:41;-2.70;75.50
1415;DHT22;702;49.466;11.086;2023-02-28T03:16:34;-2.60;75.20
1415;DHT22;702;49.466;11.086;2023-02-28T03:19:23;-2.60;75.30
1415;DHT22;702;49.466;11.086;2023-02-28T03:22:08;-2.60;75.30
1415;DHT22;702;49.466;11.086;2023-02-28T03:24:45;-2.70;75.40
1415;DHT22;702;49.466;11.086;2023-02-28T03:27:22;-2.60;75.30
1415;DHT22;702;49.466;11.086;2023-02-28T03:29:58;-2.70;75.50
1415;DHT22;702;49.466;11.086;2023-02-28T03:32:29;-2.60;75.40
1415;DHT22;702;49.466;11.086;2023-02-28T03:35:06;-2.60;75.40
1415;DHT22;702;49.466;11.086;2023-02-28T03:37:39;-2.60;75.40
1415;DHT22;702;49.466;11.086;2023-02-28T03:40:12;-2.70;75.50
1415;DHT22;702;49.466;11.086;2023-02-28T03:42:44;-2.60;75.60
1415;DHT22;702;49.466;11.086;2023-02-28T03:45:16;-2.60;75.30
1415;DHT22;702;49.466;11.086;2023-02-28T03:47:50;-2.60;75.40
1415;DHT22;702;49.466;11.086;2023-02-28T03:50:21;-2.60;75.40
1415;DHT22;702;49.466;11.086;2023-02-28T03:52:54;-2.70;75.50
1415;DHT22;702;49.466;11.086;2023-02-28T03:55:27;-2.70;75.70
1415;DHT22;702;49.466;11.086;2023-02-28T03:57:59;-2.70;75.80
1415;DHT22;702;49.466;11.086;2023-02-28T04:00:32;-2.70;75.70
1415;DHT22;702;49.466;11.086;2023-02-28T04:03:01;-2.70;75.60
1415;DHT22;702;49.466;11.086;2023-02-28T04:05:29;-2.70;75.80
1415;DHT22;702;49.466;11.086;2023-02-28T04:08:05;-2.70;75.70
1415;DHT22;702;49.466;11.086;2023-02-28T04:10:33;-2.70;75.90
1415;DHT22;702;49.466;11.086;2023-02-28T04:13:00;-2.70;75.80
1415;DHT22;702;49.466;11.086;2023-02-28T04:15:27;-2.70;75.60
1415;DHT22;702;49.466;11.086;2023-02-28T04:17:54;-2.70;75.70
1415;DHT22;702;49.466;11.086;2023-02-28T04:20:23;-2.70;75.90
1415;DHT22;702;49.466;11.086;2023-02-28T04:22:51;-2.70;75.80
1415;DHT22;702;49.466;11.086;2023-02-28T04:25:19;-2.70;75.70
1415;DHT22;702;49.466;11.086;2023-02-28T04:27:46;-2.70;75.80
1415;DHT22;702;49.466;11.086;2023-02-28T04:30:14;-2.60;75.90
1415;DHT22;702;49.466;11.086;2023-02-28T04:32:41;-2.70;75.70
1415;DHT22;702;49.466;11.086;2023-02-28T04:35:08;-2.60;75.90
1415;DHT22;702;49.466;11.086;2023-02-28T04:37:36;-2.60;75.70
1415;DHT22;702;49.466;11.086;2023-02-28T04:40:05;-2.60;75.60
1415;DHT22;702;49.466;11.086;2023-02-28T04:42:35;-2.60;75.50
1415;DHT22;702;49.466;11.086;2023-02-28T04:45:02;-2.60;75.70
1415;DHT22;702;49.466;11.086;2023-02-28T04:47:30;-2.60;75.60
1415;DHT22;702;49.466;11.086;2023-02-28T04:49:58;-2.60;75.70
1415;DHT22;702;49.466;11.086;2023-02-28T04:52:25;-2.60;75.60
1415;DHT22;702;49.466;11.086;2023-02-28T04:54:54;-2.60;75.80
1415;DHT22;702;49.466;11.086;2023-02-28T04:57:21;-2.60;75.60
1415;DHT22;702;49.466;11.086;2023-02-28T04:59:50;-2.60;75.80
1415;DHT22;702;49.466;11.086;2023-02-28T05:02:17;-2.60;75.70
1415;DHT22;702;49.466;11.086;2023-02-28T05:04:46;-2.60;75.80
1415;DHT22;702;49.466;11.086;2023-02-28T05:07:13;-2.60;75.70
1415;DHT22;702;49.466;11.086;2023-02-28T05:09:40;-2.60;75.70
1415;DHT22;702;49.466;11.086;2023-02-28T05:12:09;-2.60;75.70
1415;DHT22;702;49.466;11.086;2023-02-28T05:14:36;-2.60;75.90
1415;DHT22;702;49.466;11.086;2023-02-28T05:17:05;-2.60;75.90
1415;DHT22;702;49.466;11.086;2023-02-28T05:19:32;-2.60;76.00
1415;DHT22;702;49.466;11.086;2023-02-28T05:21:59;-2.60;76.10
1415;DHT22;702;49.466;11.086;2023-02-28T05:24:28;-2.60;76.20
1415;DHT22;702;49.466;11.086;2023-02-28T05:26:55;-2.60;76.20
1415;DHT22;702;49.466;11.086;2023-02-28T05:29:22;-2.60;76.20
1415;DHT22;702;49.466;11.086;2023-02-28T05:31:50;-2.60;76.00
1415;DHT22;702;49.466;11.086;2023-02-28T05:34:18;-2.60;76.30
1415;DHT22;702;49.466;11.086;2023-02-28T05:36:45;-2.60;76.30
1415;DHT22;702;49.466;11.086;2023-02-28T05:39:13;-2.60;76.20
1415;DHT22;702;49.466;11.086;2023-02-28T05:41:41;-2.70;76.50
1415;DHT22;702;49.466;11.086;2023-02-28T05:44:08;-2.60;76.20
1415;DHT22;702;49.466;11.086;2023-02-28T05:46:36;-2.60;76.20
1415;DHT22;702;49.466;11.086;2023-02-28T05:49:04;-2.60;76.30
1415;DHT22;702;49.466;11.086;2023-02-28T05:51:32;-2.50;75.90
1415;DHT22;702;49.466;11.086;2023-02-28T05:54:02;-2.60;76.00
1415;DHT22;702;49.466;11.086;2023-02-28T05:56:30;-2.60;76.10
1415;DHT22;702;49.466;11.086;2023-02-28T05:58:57;-2.60;76.20
1415;DHT22;702;49.466;11.086;2023-02-28T06:01:32;-2.70;76.30
1415;DHT22;702;49.466;11.086;2023-02-28T06:04:01;-2.60;76.30
1415;DHT22;702;49.466;11.086;2023-02-28T06:06:31;-2.60;76.10
1415;DHT22;702;49.466;11.086;2023-02-28T06:09:00;-2.60;76.20
1415;DHT22;702;49.466;11.086;2023-02-28T06:11:27;-2.60;76.30
1415;DHT22;702;49.466;11.086;2023-02-28T06:13:56;-2.60;76.00
1415;DHT22;702;49.466;11.086;2023-02-28T06:16:25;-2.60;76.20
1415;DHT22;702;49.466;11.086;2023-02-28T06:18:53;-2.60;76.10
1415;DHT22;702;49.466;11.086;2023-02-28T06:21:22;-2.60;75.80
1415;DHT22;702;49.466;11.086;2023-02-28T06:23:50;-2.60;75.70
1415;DHT22;702;49.466;11.086;2023-02-28T06:26:18;-2.50;75.60
1415;DHT22;702;49.466;11.086;2023-02-28T06:28:45;-2.50;75.60
1415;DHT22;702;49.466;11.086;2023-02-28T06:31:14;-2.40;75.40
1415;DHT22;702;49.466;11.086;2023-02-28T06:33:43;-2.40;75.20
1415;DHT22;702;49.466;11.086;2023-02-28T06:36:12;-2.40;75.30
1415;DHT22;702;49.466;11.086;2023-02-28T06:38:42;-2.40;74.90
1415;DHT22;702;49.466;11.086;2023-02-28T06:41:11;-2.30;74.80
1415;DHT22;702;49.466;11.086;2023-02-28T06:43:41;-2.30;74.60
1415;DHT22;702;49.466;11.086;2023-02-28T06:46:12;-2.20;74.70
1415;DHT22;702;49.466;11.086;2023-02-28T06:48:40;-2.10;75.00
1415;DHT22;702;49.466;11.086;2023-02-28T06:51:11;-2.00;74.70
1415;DHT22;702;49.466;11.086;2023-02-28T06:53:40;-2.00;74.00
1415;DHT22;702;49.466;11.086;2023-02-28T06:56:11;-2.00;73.60
1415;DHT22;702;49.466;11.086;2023-02-28T06:58:39;-1.90;73.80
1415;DHT22;702;49.466;11.086;2023-02-28T07:01:07;-1.90;73.60
1415;DHT22;702;49.466;11.086;2023-02-28T07:03:35;-1.90;73.60
1415;DHT22;702;49.466;11.086;2023-02-28T07:06:04;-1.90;73.20
1415;DHT22;702;49.466;11.086;2023-02-28T07:08:32;-1.80;73.10
1415;DHT22;702;49.466;11.086;2023-02-28T07:11:00;-1.80;73.00
1415;DHT22;702;49.466;11.086;2023-02-28T07:13:28;-1.70;72.80
1415;DHT22;702;49.466;11.086;2023-02-28T07:15:57;-1.60;72.60
1415;DHT22;702;49.466;11.086;2023-02-28T07:18:25;-1.60;72.40
1415;DHT22;702;49.466;11.086;2023-02-28T07:20:53;-1.50;72.10
1415;DHT22;702;49.466;11.086;2023-02-28T07:23:20;-1.30;71.80
1415;DHT22;702;49.466;11.086;2023-02-28T07:25:49;-1.30;71.40
1415;DHT22;702;49.466;11.086;2023-02-28T07:28:17;-1.30;71.30
1415;DHT22;702;49.466;11.086;2023-02-28T07:30:45;-1.20;71.30
1415;DHT22;702;49.466;11.086;2023-02-28T07:33:15;-1.10;71.10
1415;DHT22;702;49.466;11.086;2023-02-28T07:35:42;-1.00;70.80
1415;DHT22;702;49.466;11.086;2023-02-28T07:38:10;-0.90;70.60
1415;DHT22;702;49.466;11.086;2023-02-28T07:40:39;-1.00;70.30
1415;DHT22;702;49.466;11.086;2023-02-28T07:43:06;-0.90;70.20
1415;DHT22;702;49.466;11.086;2023-02-28T07:45:34;-0.80;70.20
1415;DHT22;702;49.466;11.086;2023-02-28T07:48:02;-0.80;69.90
1415;DHT22;702;49.466;11.086;2023-02-28T07:50:30;-0.80;70.10
1415;DHT22;702;49.466;11.086;2023-02-28T07:52:57;-0.60;69.90
1415;DHT22;702;49.466;11.086;2023-02-28T07:55:25;-0.50;69.70
1415;DHT22;702;49.466;11.086;2023-02-28T07:57:52;-0.50;69.50
1415;DHT22;702;49.466;11.086;2023-02-28T08:00:20;-0.50;69.10
1415;DHT22;702;49.466;11.086;2023-02-28T08:02:47;-0.30;69.20
1415;DHT22;702;49.466;11.086;2023-02-28T08:05:16;-0.10;68.90
1415;DHT22;702;49.466;11.086;2023-02-28T08:07:44;0.00;68.20
1415;DHT22;702;49.466;11.086;2023-02-28T08:10:13;0.10;68.00
1415;DHT22;702;49.466;11.086;2023-02-28T08:12:40;0.10;67.60
1415;DHT22;702;49.466;11.086;2023-02-28T08:15:08;0.20;67.40
1415;DHT22;702;49.466;11.086;2023-02-28T08:17:36;0.30;67.20
1415;DHT22;702;49.466;11.086;2023-02-28T08:20:04;0.30;66.40
1415;DHT22;702;49.466;11.086;2023-02-28T08:22:33;0.30;66.60
1415;DHT22;702;49.466;11.086;2023-02-28T08:25:01;0.30;66.20
1415;DHT22;702;49.466;11.086;2023-02-28T08:27:28;0.30;65.40
1415;DHT22;702;49.466;11.086;2023-02-28T08:29:55;0.30;65.40
1415;DHT22;702;49.466;11.086;2023-02-28T08:32:22;0.30;65.40
1415;DHT22;702;49.466;11.086;2023-02-28T08:34:49;0.50;65.30
1415;DHT22;702;49.466;11.086;2023-02-28T08:37:17;0.60;64.90
1415;DHT22;702;49.466;11.086;2023-02-28T08:39:47;0.60;63.70
1415;DHT22;702;49.466;11.086;2023-02-28T08:42:14;0.60;63.70
1415;DHT22;702;49.466;11.086;2023-02-28T08:44:41;0.60;63.10
1415;DHT22;702;49.466;11.086;2023-02-28T08:47:08;0.50;63.40
1415;DHT22;702;49.466;11.086;2023-02-28T08:49:36;0.60;63.10
1415;DHT22;702;49.466;11.086;2023-02-28T08:52:04;0.50;62.40
1415;DHT22;702;49.466;11.086;2023-02-28T08:54:32;0.70;62.30
1415;DHT22;702;49.466;11.086;2023-02-28T08:57:01;0.80;62.50
1415;DHT22;702;49.466;11.086;2023-02-28T08:59:30;0.90;61.70
1415;DHT22;702;49.466;11.086;2023-02-28T09:01:57;1.00;61.80
1415;DHT22;702;49.466;11.086;2023-02-28T09:04:24;0.90;61.30
1415;DHT22;702;49.466;11.086;2023-02-28T09:06:51;0.80;60.90
1415;DHT22;702;49.466;11.086;2023-02-28T09:09:19;0.80;60.80
1415;DHT22;702;49.466;11.086;2023-02-28T09:11:46;0.90;60.60
1415;DHT22;702;49.466;11.086;2023-02-28T09:14:15;0.90;60.50
1415;DHT22;702;49.466;11.086;2023-02-28T09:16:43;0.90;60.80
1415;DHT22;702;49.466;11.086;2023-02-28T09:19:11;1.00;60.60
1415;DHT22;702;49.466;11.086;2023-02-28T09:21:38;1.10;59.80
1415;DHT22;702;49.466;11.086;2023-02-28T09:24:07;1.30;59.80
1415;DHT22;702;49.466;11.086;2023-02-28T09:26:34;1.50;58.70
1415;DHT22;702;49.466;11.086;2023-02-28T09:29:01;1.60;58.20
1415;DHT22;702;49.466;11.086;2023-02-28T09:31:31;1.40;57.50
1415;DHT22;702;49.466;11.086;2023-02-28T09:33:58;1.50;57.80
1415;DHT22;702;49.466;11.086;2023-02-28T09:36:27;1.50;57.90
1415;DHT22;702;49.466;11.086;2023-02-28T09:38:55;1.70;57.20
1415;DHT22;702;49.466;11.086;2023-02-28T09:41:24;1.90;56.80
1415;DHT22;702;49.466;11.086;2023-02-28T09:43:56;1.70;56.40
1415;DHT22;702;49.466;11.086;2023-02-28T09:46:32;1.60;56.10
1415;DHT22;702;49.466;11.086;2023-02-28T09:49:04;1.70;55.90
1415;DHT22;702;49.466;11.086;2023-02-28T09:51:47;1.90;55.90
1415;DHT22;702;49.466;11.086;2023-02-28T09:54:20;1.90;55.30
1415;DHT22;702;49.466;11.086;2023-02-28T09:56:51;1.70;55.00
1415;DHT22;702;49.466;11.086;2023-02-28T09:59:31;1.70;55.00
1415;DHT22;702;49.466;11.086;2023-02-28T10:02:19;1.70;54.80
1415;DHT22;702;49.466;11.086;2023-02-28T10:04:59;1.80;54.70
1415;DHT22;702;49.466;11.086;2023-02-28T10:07:41;2.00;54.50
1415;DHT22;702;49.466;11.086;2023-02-28T10:10:21;2.30;54.10
1415;DHT22;702;49.466;11.086;2023-02-28T10:12:53;2.50;53.70
1415;DHT22;702;49.466;11.086;2023-02-28T10:15:25;2.50;53.00
1415;DHT22;702;49.466;11.086;2023-02-28T10:17:58;2.50;53.00
1415;DHT22;702;49.466;11.086;2023-02-28T10:20:28;2.60;52.80
1415;DHT22;702;49.466;11.086;2023-02-28T10:23:00;2.70;52.50
1415;DHT22;702;49.466;11.086;2023-02-28T10:25:34;2.80;52.30
1415;DHT22;702;49.466;11.086;2023-02-28T10:28:09;3.00;51.90
1415;DHT22;702;49.466;11.086;2023-02-28T10:30:40;3.00;51.00
1415;DHT22;702;49.466;11.086;2023-02-28T10:33:22;2.90;50.80
1415;DHT22;702;49.466;11.086;2023-02-28T10:35:51;3.10;50.50
1415;DHT22;702;49.466;11.086;2023-02-28T10:38:21;3.20;50.50
1415;DHT22;702;49.466;11.086;2023-02-28T10:40:49;3.30;50.30
1415;DHT22;702;49.466;11.086;2023-02-28T10:43:21;3.20;50.10
1415;DHT22;702;49.466;11.086;2023-02-28T10:45:59;3.30;49.90
1415;DHT22;702;49.466;11.086;2023-02-28T10:48:38;3.30;49.80
1415;DHT22;702;49.466;11.086;2023-02-28T10:51:09;3.20;49.40
1415;DHT22;702;49.466;11.086;2023-02-28T10:53:45;3.30;49.30
1415;DHT22;702;49.466;11.086;2023-02-28T10:56:17;3.30;49.90
1415;DHT22;702;49.466;11.086;2023-02-28T10:58:54;3.30;49.20
1415;DHT22;702;49.466;11.086;2023-02-28T11:01:23;3.30;49.30
1415;DHT22;702;49.466;11.086;2023-02-28T11:03:53;3.40;49.40
1415;DHT22;702;49.466;11.086;2023-02-28T11:06:22;3.60;48.90
1415;DHT22;702;49.466;11.086;2023-02-28T11:08:53;3.60;48.90
1415;DHT22;702;49.466;11.086;2023-02-28T11:11:23;3.40;48.20
1415;DHT22;702;49.466;11.086;2023-02-28T11:13:54;3.30;48.20
1415;DHT22;702;49.466;11.086;2023-02-28T11:16:31;3.40;48.40
1415;DHT22;702;49.466;11.086;2023-02-28T11:19:02;3.40;47.70
1415;DHT22;702;49.466;11.086;2023-02-28T11:21:31;3.20;47.90
1415;DHT22;702;49.466;11.086;2023-02-28T11:24:04;3.00;48.00
1415;DHT22;702;49.466;11.086;2023-02-28T11:26:40;2.90;48.20
1415;DHT22;702;49.466;11.086;2023-02-28T11:29:17;3.20;48.30
1415;DHT22;702;49.466;11.086;2023-02-28T11:32:18;3.10;48.10
1415;DHT22;702;49.466;11.086;2023-02-28T11:35:01;3.30;48.40
1415;DHT22;702;49.466;11.086;2023-02-28T11:37:31;3.40;47.90
1415;DHT22;702;49.466;11.086;2023-02-28T11:39:59;3.40;47.60
1415;DHT22;702;49.466;11.086;2023-02-28T11:42:38;3.50;48.00
1415;DHT22;702;49.466;11.086;2023-02-28T11:45:31;3.60;47.80
1415;DHT22;702;49.466;11.086;2023-02-28T11:48:16;3.50;47.80
1415;DHT22;702;49.466;11.086;2023-02-28T11:50:54;3.50;47.60
1415;DHT22;702;49.466;11.086;2023-02-28T11:53:50;3.50;47.80
1415;DHT22;702;49.466;11.086;2023-02-28T11:56:31;3.60;47.60
1415;DHT22;702;49.466;11.086;2023-02-28T11:59:13;3.50;47.80
1415;DHT22;702;49.466;11.086;2023-02-28T12:02:05;3.70;47.90
1415;DHT22;702;49.466;11.086;2023-02-28T12:04:51;3.80;47.50
1415;DHT22;702;49.466;11.086;2023-02-28T12:07:26;3.80;47.20
1415;DHT22;702;49.466;11.086;2023-02-28T12:10:04;3.90;47.60
1415;DHT22;702;49.466;11.086;2023-02-28T12:12:43;4.00;47.20
1415;DHT22;702;49.466;11.086;2023-02-28T12:15:26;3.90;46.90
1415;DHT22;702;49.466;11.086;2023-02-28T12:18:08;4.00;47.20
1415;DHT22;702;49.466;11.086;2023-02-28T12:20:45;4.10;47.00
1415;DHT22;702;49.466;11.086;2023-02-28T12:23:34;4.20;47.00
1415;DHT22;702;49.466;11.086;2023-02-28T12:26:14;4.20;46.50
1415;DHT22;702;49.466;11.086;2023-02-28T12:28:51;4.20;46.30
1415;DHT22;702;49.466;11.086;2023-02-28T12:31:23;4.00;46.90
1415;DHT22;702;49.466;11.086;2023-02-28T12:33:53;4.10;46.70
1415;DHT22;702;49.466;11.086;2023-02-28T12:36:24;4.10;46.70
1415;DHT22;702;49.466;11.086;2023-02-28T12:38:59;4.10;46.40
1415;DHT22;702;49.466;11.086;2023-02-28T12:41:33;4.10;46.50
1415;DHT22;702;49.466;11.086;2023-02-28T12:44:07;4.20;46.30
1415;DHT22;702;49.466;11.086;2023-02-28T12:46:41;4.20;46.30
1415;DHT22;702;49.466;11.086;2023-02-28T12:49:12;4.30;46.50
1415;DHT22;702;49.466;11.086;2023-02-28T12:51:43;4.50;46.60
1415;DHT22;702;49.466;11.086;2023-02-28T12:54:19;4.60;46.40
1415;DHT22;702;49.466;11.086;2023-02-28T12:56:54;4.60;46.20
1415;DHT22;702;49.466;11.086;2023-02-28T12:59:27;4.60;45.90
1415;DHT22;702;49.466;11.086;2023-02-28T13:05:52;4.60;46.10
1415;DHT22;702;49.466;11.086;2023-02-28T13:08:49;4.70;45.90
1415;DHT22;702;49.466;11.086;2023-02-28T13:11:32;4.70;45.80
1415;DHT22;702;49.466;11.086;2023-02-28T13:14:03;4.40;45.60
1415;DHT22;702;49.466;11.086;2023-02-28T13:16:54;4.40;46.10
1415;DHT22;702;49.466;11.086;2023-02-28T13:19:25;4.40;46.00
1415;DHT22;702;49.466;11.086;2023-02-28T13:21:55;4.60;46.00
1415;DHT22;702;49.466;11.086;2023-02-28T13:24:47;4.60;45.90
1415;DHT22;702;49.466;11.086;2023-02-28T13:27:37;4.70;45.80
1415;DHT22;702;49.466;11.086;2023-02-28T13:33:33;4.80;45.80
1415;DHT22;702;49.466;11.086;2023-02-28T13:36:23;4.70;46.40
1415;DHT22;702;49.466;11.086;2023-02-28T13:38:53;4.80;46.20
1415;DHT22;702;49.466;11.086;2023-02-28T13:41:48;4.90;46.10
1415;DHT22;702;49.466;11.086;2023-02-28T13:44:18;4.60;46.10
1415;DHT22;702;49.466;11.086;2023-02-28T13:50:22;4.80;46.40
1415;DHT22;702;49.466;11.086;2023-02-28T13:56:26;4.80;45.90
1415;DHT22;702;49.466;11.086;2023-02-28T13:59:06;4.70;45.70
1415;DHT22;702;49.466;11.086;2023-02-28T14:01:56;4.70;45.90
1415;DHT22;702;49.466;11.086;2023-02-28T14:04:48;4.80;46.10
1415;DHT22;702;49.466;11.086;2023-02-28T14:07:20;4.70;46.00
1415;DHT22;702;49.466;11.086;2023-02-28T14:09:57;4.70;45.90
1415;DHT22;702;49.466;11.086;2023-02-28T14:12:51;4.70;46.10
1415;DHT22;702;49.466;11.086;2023-02-28T14:15:47;4.70;46.20
1415;DHT22;702;49.466;11.086;2023-02-28T14:18:29;4.80;46.20
1415;DHT22;702;49.466;11.086;2023-02-28T14:21:10;4.80;46.10
1415;DHT22;702;49.466;11.086;2023-02-28T14:27:21;4.50;46.20
1415;DHT22;702;49.466;11.086;2023-02-28T14:30:40;4.70;46.50
1415;DHT22;702;49.466;11.086;2023-02-28T14:34:02;4.80;46.30
1415;DHT22;702;49.466;11.086;2023-02-28T14:36:41;4.80;46.20
1415;DHT22;702;49.466;11.086;2023-02-28T14:39:13;4.80;46.20
1415;DHT22;702;49.466;11.086;2023-02-28T14:41:43;4.60;46.30
1415;DHT22;702;49.466;11.086;2023-02-28T14:44:16;4.70;46.60
1415;DHT22;702;49.466;11.086;2023-02-28T14:46:46;4.80;46.60
1415;DHT22;702;49.466;11.086;2023-02-28T14:49:19;4.70;46.20
1415;DHT22;702;49.466;11.086;2023-02-28T14:51:49;4.40;46.30
1415;DHT22;702;49.466;11.086;2023-02-28T14:54:20;4.50;46.60
1415;DHT22;702;49.466;11.086;2023-02-28T14:56:50;4.50;46.70
1415;DHT22;702;49.466;11.086;2023-02-28T14:59:25;4.70;46.70
1415;DHT22;702;49.466;11.086;2023-02-28T15:02:16;4.70;46.40
1415;DHT22;702;49.466;11.086;2023-02-28T15:04:54;4.70;45.90
1415;DHT22;702;49.466;11.086;2023-02-28T15:07:24;4.70;46.00
1415;DHT22;702;49.466;11.086;2023-02-28T15:10:18;4.60;46.30
1415;DHT22;702;49.466;11.086;2023-02-28T15:12:55;4.60;46.40
1415;DHT22;702;49.466;11.086;2023-02-28T15:15:27;4.60;46.60
1415;DHT22;702;49.466;11.086;2023-02-28T15:18:03;4.50;46.80
1415;DHT22;702;49.466;11.086;2023-02-28T15:20:34;4.40;46.90
1415;DHT22;702;49.466;11.086;2023-02-28T15:23:02;4.40;46.80
1415;DHT22;702;49.466;11.086;2023-02-28T15:25:29;4.40;46.90
1415;DHT22;702;49.466;11.086;2023-02-28T15:27:58;4.30;47.00
1415;DHT22;702;49.466;11.086;2023-02-28T15:30:28;4.30;47.10
1415;DHT22;702;49.466;11.086;2023-02-28T15:33:05;4.30;47.10
1415;DHT22;702;49.466;11.086;2023-02-28T15:35:35;4.30;47.10
1415;DHT22;702;49.466;11.086;2023-02-28T15:38:11;4.20;47.10
1415;DHT22;702;49.466;11.086;2023-02-28T15:40:43;4.20;47.40
1415;DHT22;702;49.466;11.086;2023-02-28T15:43:16;4.30;47.40
1415;DHT22;702;49.466;11.086;2023-02-28T15:45:46;4.30;47.30
1415;DHT22;702;49.466;11.086;2023-02-28T15:48:18;4.30;47.10
1415;DHT22;702;49.466;11.086;2023-02-28T15:50:50;4.20;47.20
1415;DHT22;702;49.466;11.086;2023-02-28T15:53:22;4.20;47.50
1415;DHT22;702;49.466;11.086;2023-02-28T15:55:56;4.10;47.40
1415;DHT22;702;49.466;11.086;2023-02-28T15:58:26;4.00;47.70
1415;DHT22;702;49.466;11.086;2023-02-28T16:01:05;4.00;47.90
1415;DHT22;702;49.466;11.086;2023-02-28T16:03:40;4.00;47.70
1415;DHT22;702;49.466;11.086;2023-02-28T16:06:41;3.90;47.80
1415;DHT22;702;49.466;11.086;2023-02-28T16:09:11;3.80;47.90
1415;DHT22;702;49.466;11.086;2023-02-28T16:11:43;3.70;48.00
1415;DHT22;702;49.466;11.086;2023-02-28T16:14:17;3.70;48.30
1415;DHT22;702;49.466;11.086;2023-02-28T16:16:47;3.60;48.30
1415;DHT22;702;49.466;11.086;2023-02-28T16:19:17;3.50;48.30
1415;DHT22;702;49.466;11.086;2023-02-28T16:21:46;3.40;48.30
1415;DHT22;702;49.466;11.086;2023-02-28T16:24:13;3.40;48.40
1415;DHT22;702;49.466;11.086;2023-02-28T16:26:44;3.30;48.50
1415;DHT22;702;49.466;11.086;2023-02-28T16:29:17;3.20;48.60
1415;DHT22;702;49.466;11.086;2023-02-28T16:31:49;3.20;48.80
1415;DHT22;702;49.466;11.086;2023-02-28T16:34:16;3.10;48.90
1415;DHT22;702;49.466;11.086;2023-02-28T16:36:47;3.00;49.00
1415;DHT22;702;49.466;11.086;2023-02-28T16:39:16;3.00;49.10
1415;DHT22;702;49.466;11.086;2023-02-28T16:41:46;3.00;49.20
1415;DHT22;702;49.466;11.086;2023-02-28T16:44:29;2.90;49.20
1415;DHT22;702;49.466;11.086;2023-02-28T16:46:59;2.90;49.40
1415;DHT22;702;49.466;11.086;2023-02-28T16:49:29;2.80;49.50
1415;DHT22;702;49.466;11.086;2023-02-28T16:51:57;2.80;49.60
1415;DHT22;702;49.466;11.086;2023-02-28T16:54:25;2.70;49.80
1415;DHT22;702;49.466;11.086;2023-02-28T16:56:52;2.60;49.90
1415;DHT22;702;49.466;11.086;2023-02-28T16:59:22;2.60;50.10
1415;DHT22;702;49.466;11.086;2023-02-28T17:01:50;2.50;50.20
1415;DHT22;702;49.466;11.086;2023-02-28T17:04:18;2.40;50.50
1415;DHT22;702;49.466;11.086;2023-02-28T17:06:46;2.40;50.70
1415;DHT22;702;49.466;11.086;2023-02-28T17:09:17;2.30;50.80